sensor_id;sensor_type;location;lat;lon;timestamp;temperature;humidity
43647;DHT22;56152;49.996;18.980;2022-12-31T00:01:49;0.50;95.30
43647;DHT22;56152;49.996;18.980;2022-12-31T00:06:53;0.70;95.40
43647;DHT22;56152;49.996;18.980;2022-12-31T00:11:55;0.70;95.20
43647;DHT22;56152;49.996;18.980;2022-12-31T00:16:57;0.80;95.20
43647;DHT22;56152;49.996;18.980;2022-12-31T00:22:14;0.70;95.20
43647;DHT22;56152;49.996;18.980;2022-12-31T00:27:16;0.80;95.40
43647;DHT22;56152;49.996;18.980;2022-12-31T00:32:19;0.80;95.40
43647;DHT22;56152;49.996;18.980;2022-12-31T00:37:23;1.10;95.60
43647;DHT22;56152;49.996;18.980;2022-12-31T00:42:26;1.20;95.30
43647;DHT22;56152;49.996;18.980;2022-12-31T00:47:28;1.20;95.30
43647;DHT22;56152;49.996;18.980;2022-12-31T00:52:32;1.10;95.20
43647;DHT22;56152;49.996;18.980;2022-12-31T00:57:34;1.00;95.30
43647;DHT22;56152;49.996;18.980;2022-12-31T01:02:36;1.10;95.80
43647;DHT22;56152;49.996;18.980;2022-12-31T01:07:42;1.30;95.50
43647;DHT22;56152;49.996;18.980;2022-12-31T01:12:44;1.40;95.40
43647;DHT22;56152;49.996;18.980;2022-12-31T01:17:49;1.50;95.40
43647;DHT22;56152;49.996;18.980;2022-12-31T01:22:53;1.50;95.30
43647;DHT22;56152;49.996;18.980;2022-12-31T01:27:55;1.60;95.30
43647;DHT22;56152;49.996;18.980;2022-12-31T01:32:57;1.70;95.40
43647;DHT22;56152;49.996;18.980;2022-12-31T01:38:02;1.80;95.40
43647;DHT22;56152;49.996;18.980;2022-12-31T01:43:12;1.90;95.40
43647;DHT22;56152;49.996;18.980;2022-12-31T01:48:24;2.00;95.40
43647;DHT22;56152;49.996;18.980;2022-12-31T01:53:30;2.00;95.40
43647;DHT22;56152;49.996;18.980;2022-12-31T01:58:35;2.10;95.40
43647;DHT22;56152;49.996;18.980;2022-12-31T02:03:43;2.00;95.50
43647;DHT22;56152;49.996;18.980;2022-12-31T02:08:47;2.00;95.60
43647;DHT22;56152;49.996;18.980;2022-12-31T02:13:51;2.10;95.70
43647;DHT22;56152;49.996;18.980;2022-12-31T02:18:58;2.00;95.70
43647;DHT22;56152;49.996;18.980;2022-12-31T02:30:08;2.10;95.80
43647;DHT22;56152;49.996;18.980;2022-12-31T02:35:21;2.20;95.80
43647;DHT22;56152;49.996;18.980;2022-12-31T02:40:26;2.30;95.80
43647;DHT22;56152;49.996;18.980;2022-12-31T02:45:45;2.40;95.80
43647;DHT22;56152;49.996;18.980;2022-12-31T02:50:56;2.50;95.80
43647;DHT22;56152;49.996;18.980;2022-12-31T02:56:22;2.60;95.80
43647;DHT22;56152;49.996;18.980;2022-12-31T03:01:35;2.60;95.80
43647;DHT22;56152;49.996;18.980;2022-12-31T03:06:56;2.60;95.80
43647;DHT22;56152;49.996;18.980;2022-12-31T03:11:59;2.60;95.90
43647;DHT22;56152;49.996;18.980;2022-12-31T03:17:20;2.60;95.90
43647;DHT22;56152;49.996;18.980;2022-12-31T03:22:22;2.60;96.00
43647;DHT22;56152;49.996;18.980;2022-12-31T03:27:31;2.70;96.20
43647;DHT22;56152;49.996;18.980;2022-12-31T03:32:44;3.40;96.80
43647;DHT22;56152;49.996;18.980;2022-12-31T03:37:47;4.20;96.30
43647;DHT22;56152;49.996;18.980;2022-12-31T03:43:01;4.90;95.90
43647;DHT22;56152;49.996;18.980;2022-12-31T03:48:06;5.40;95.50
43647;DHT22;56152;49.996;18.980;2022-12-31T03:53:15;5.70;95.50
43647;DHT22;56152;49.996;18.980;2022-12-31T03:58:21;5.80;95.10
43647;DHT22;56152;49.996;18.980;2022-12-31T04:03:25;5.80;95.20
43647;DHT22;56152;49.996;18.980;2022-12-31T04:08:31;5.80;95.30
43647;DHT22;56152;49.996;18.980;2022-12-31T04:13:33;5.70;95.30
43647;DHT22;56152;49.996;18.980;2022-12-31T04:18:36;5.60;95.30
43647;DHT22;56152;49.996;18.980;2022-12-31T04:23:45;5.50;95.40
43647;DHT22;56152;49.996;18.980;2022-12-31T04:28:47;5.40;95.50
43647;DHT22;56152;49.996;18.980;2022-12-31T04:33:51;5.40;95.50
43647;DHT22;56152;49.996;18.980;2022-12-31T04:38:53;5.30;95.50
43647;DHT22;56152;49.996;18.980;2022-12-31T04:43:56;5.10;95.60
43647;DHT22;56152;49.996;18.980;2022-12-31T04:49:00;5.10;95.80
43647;DHT22;56152;49.996;18.980;2022-12-31T04:54:03;5.20;95.90
43647;DHT22;56152;49.996;18.980;2022-12-31T04:59:05;5.30;95.90
43647;DHT22;56152;49.996;18.980;2022-12-31T05:04:11;5.50;95.90
43647;DHT22;56152;49.996;18.980;2022-12-31T05:09:15;5.80;95.80
43647;DHT22;56152;49.996;18.980;2022-12-31T05:14:24;6.00;95.70
43647;DHT22;56152;49.996;18.980;2022-12-31T05:19:27;6.20;95.60
43647;DHT22;56152;49.996;18.980;2022-12-31T05:24:29;6.30;95.40
43647;DHT22;56152;49.996;18.980;2022-12-31T05:29:35;6.40;95.40
43647;DHT22;56152;49.996;18.980;2022-12-31T05:34:38;6.50;95.50
43647;DHT22;56152;49.996;18.980;2022-12-31T05:39:40;6.50;95.50
43647;DHT22;56152;49.996;18.980;2022-12-31T05:44:44;6.40;95.60
43647;DHT22;56152;49.996;18.980;2022-12-31T05:49:50;6.30;95.70
43647;DHT22;56152;49.996;18.980;2022-12-31T05:54:52;6.30;95.90
43647;DHT22;56152;49.996;18.980;2022-12-31T06:00:04;6.40;95.90
43647;DHT22;56152;49.996;18.980;2022-12-31T06:05:16;6.40;95.90
43647;DHT22;56152;49.996;18.980;2022-12-31T06:10:21;6.40;96.00
43647;DHT22;56152;49.996;18.980;2022-12-31T06:15:29;6.40;96.10
43647;DHT22;56152;49.996;18.980;2022-12-31T06:20:37;6.50;96.10
43647;DHT22;56152;49.996;18.980;2022-12-31T06:25:39;6.60;96.20
43647;DHT22;56152;49.996;18.980;2022-12-31T06:30:41;6.80;96.10
43647;DHT22;56152;49.996;18.980;2022-12-31T06:35:53;7.00;96.00
43647;DHT22;56152;49.996;18.980;2022-12-31T06:41:01;7.10;95.90
43647;DHT22;56152;49.996;18.980;2022-12-31T06:46:06;7.20;95.80
43647;DHT22;56152;49.996;18.980;2022-12-31T06:51:13;7.30;95.80
43647;DHT22;56152;49.996;18.980;2022-12-31T06:56:17;7.40;95.70
43647;DHT22;56152;49.996;18.980;2022-12-31T07:01:33;7.40;95.60
43647;DHT22;56152;49.996;18.980;2022-12-31T07:06:41;7.50;95.60
43647;DHT22;56152;49.996;18.980;2022-12-31T07:12:05;7.60;95.50
43647;DHT22;56152;49.996;18.980;2022-12-31T07:17:17;7.60;95.40
43647;DHT22;56152;49.996;18.980;2022-12-31T07:22:31;7.60;95.30
43647;DHT22;56152;49.996;18.980;2022-12-31T07:28:01;7.60;95.40
43647;DHT22;56152;49.996;18.980;2022-12-31T07:33:25;7.50;95.40
43647;DHT22;56152;49.996;18.980;2022-12-31T07:38:59;7.50;95.50
43647;DHT22;56152;49.996;18.980;2022-12-31T07:44:08;7.60;95.40
43647;DHT22;56152;49.996;18.980;2022-12-31T07:49:13;7.70;95.30
43647;DHT22;56152;49.996;18.980;2022-12-31T07:54:16;7.80;95.20
43647;DHT22;56152;49.996;18.980;2022-12-31T07:59:44;7.90;95.10
43647;DHT22;56152;49.996;18.980;2022-12-31T08:04:55;8.00;95.00
43647;DHT22;56152;49.996;18.980;2022-12-31T08:10:07;8.20;94.90
43647;DHT22;56152;49.996;18.980;2022-12-31T08:15:12;8.30;94.80
43647;DHT22;56152;49.996;18.980;2022-12-31T08:20:18;8.40;94.70
43647;DHT22;56152;49.996;18.980;2022-12-31T08:25:26;8.50;94.60
43647;DHT22;56152;49.996;18.980;2022-12-31T08:30:40;8.70;94.50
43647;DHT22;56152;49.996;18.980;2022-12-31T08:35:58;8.90;94.40
43647;DHT22;56152;49.996;18.980;2022-12-31T08:41:19;9.00;94.20
43647;DHT22;56152;49.996;18.980;2022-12-31T08:46:27;9.20;94.20
43647;DHT22;56152;49.996;18.980;2022-12-31T08:51:31;9.50;93.90
43647;DHT22;56152;49.996;18.980;2022-12-31T08:56:40;9.70;93.70
43647;DHT22;56152;49.996;18.980;2022-12-31T09:01:58;9.80;93.50
43647;DHT22;56152;49.996;18.980;2022-12-31T09:07:04;9.80;93.40
43647;DHT22;56152;49.996;18.980;2022-12-31T09:12:15;9.80;93.40
43647;DHT22;56152;49.996;18.980;2022-12-31T09:17:39;9.80;93.50
43647;DHT22;56152;49.996;18.980;2022-12-31T09:22:43;9.80;93.50
43647;DHT22;56152;49.996;18.980;2022-12-31T09:27:55;9.90;93.50
43647;DHT22;56152;49.996;18.980;2022-12-31T09:33:03;9.90;93.50
43647;DHT22;56152;49.996;18.980;2022-12-31T09:38:14;9.90;93.50
43647;DHT22;56152;49.996;18.980;2022-12-31T09:54:25;10.10;93.40
43647;DHT22;56152;49.996;18.980;2022-12-31T09:59:33;10.10;93.60
43647;DHT22;56152;49.996;18.980;2022-12-31T10:04:51;10.10;93.60
43647;DHT22;56152;49.996;18.980;2022-12-31T10:10:14;10.20;93.60
43647;DHT22;56152;49.996;18.980;2022-12-31T10:15:47;10.20;93.60
43647;DHT22;56152;49.996;18.980;2022-12-31T10:21:26;10.40;93.60
43647;DHT22;56152;49.996;18.980;2022-12-31T10:26:41;10.70;93.40
43647;DHT22;56152;49.996;18.980;2022-12-31T10:31:53;10.80;93.20
43647;DHT22;56152;49.996;18.980;2022-12-31T10:37:04;10.90;93.10
43647;DHT22;56152;49.996;18.980;2022-12-31T10:42:30;11.00;93.00
43647;DHT22;56152;49.996;18.980;2022-12-31T10:48:12;11.00;92.80
43647;DHT22;56152;49.996;18.980;2022-12-31T10:53:45;11.00;92.90
43647;DHT22;56152;49.996;18.980;2022-12-31T10:59:23;11.00;92.90
43647;DHT22;56152;49.996;18.980;2022-12-31T11:04:52;11.10;93.00
43647;DHT22;56152;49.996;18.980;2022-12-31T11:10:28;11.30;92.80
43647;DHT22;56152;49.996;18.980;2022-12-31T11:15:55;11.50;92.70
43647;DHT22;56152;49.996;18.980;2022-12-31T11:21:19;11.80;92.40
43647;DHT22;56152;49.996;18.980;2022-12-31T11:26:37;12.00;92.10
43647;DHT22;56152;49.996;18.980;2022-12-31T11:37:26;12.30;91.90
43647;DHT22;56152;49.996;18.980;2022-12-31T11:42:40;12.40;91.50
43647;DHT22;56152;49.996;18.980;2022-12-31T11:47:56;12.40;91.20
43647;DHT22;56152;49.996;18.980;2022-12-31T11:53:09;12.30;91.10
43647;DHT22;56152;49.996;18.980;2022-12-31T11:58:18;12.50;91.20
43647;DHT22;56152;49.996;18.980;2022-12-31T12:03:21;12.50;91.10
43647;DHT22;56152;49.996;18.980;2022-12-31T12:08:25;12.40;91.00
43647;DHT22;56152;49.996;18.980;2022-12-31T12:13:28;12.30;91.00
43647;DHT22;56152;49.996;18.980;2022-12-31T12:18:35;12.20;91.10
43647;DHT22;56152;49.996;18.980;2022-12-31T12:23:41;12.00;91.20
43647;DHT22;56152;49.996;18.980;2022-12-31T12:28:59;11.90;91.40
43647;DHT22;56152;49.996;18.980;2022-12-31T12:34:02;11.90;91.50
43647;DHT22;56152;49.996;18.980;2022-12-31T12:39:05;11.90;91.50
43647;DHT22;56152;49.996;18.980;2022-12-31T12:44:14;11.80;91.50
43647;DHT22;56152;49.996;18.980;2022-12-31T12:49:21;11.80;91.50
43647;DHT22;56152;49.996;18.980;2022-12-31T12:54:33;11.80;91.50
43647;DHT22;56152;49.996;18.980;2022-12-31T12:59:55;11.80;91.40
43647;DHT22;56152;49.996;18.980;2022-12-31T13:05:13;11.80;91.50
43647;DHT22;56152;49.996;18.980;2022-12-31T13:10:28;11.80;91.50
43647;DHT22;56152;49.996;18.980;2022-12-31T13:15:40;11.80;91.50
43647;DHT22;56152;49.996;18.980;2022-12-31T13:20:48;11.70;91.50
43647;DHT22;56152;49.996;18.980;2022-12-31T13:26:00;11.70;91.50
43647;DHT22;56152;49.996;18.980;2022-12-31T13:31:10;11.60;91.60
43647;DHT22;56152;49.996;18.980;2022-12-31T13:36:17;11.60;91.60
43647;DHT22;56152;49.996;18.980;2022-12-31T13:41:23;11.50;91.60
43647;DHT22;56152;49.996;18.980;2022-12-31T13:46:38;11.50;91.60
43647;DHT22;56152;49.996;18.980;2022-12-31T13:51:47;11.50;91.60
43647;DHT22;56152;49.996;18.980;2022-12-31T13:56:51;11.50;91.70
43647;DHT22;56152;49.996;18.980;2022-12-31T14:02:00;11.50;91.70
43647;DHT22;56152;49.996;18.980;2022-12-31T14:07:11;11.50;91.60
43647;DHT22;56152;49.996;18.980;2022-12-31T14:12:23;11.40;91.70
43647;DHT22;56152;49.996;18.980;2022-12-31T14:17:36;11.30;91.80
43647;DHT22;56152;49.996;18.980;2022-12-31T14:22:48;11.20;91.90
43647;DHT22;56152;49.996;18.980;2022-12-31T14:37:57;11.20;92.00
43647;DHT22;56152;49.996;18.980;2022-12-31T14:43:12;11.20;92.00
43647;DHT22;56152;49.996;18.980;2022-12-31T14:48:27;11.20;91.90
43647;DHT22;56152;49.996;18.980;2022-12-31T14:53:32;11.20;91.90
43647;DHT22;56152;49.996;18.980;2022-12-31T14:58:36;11.20;92.10
43647;DHT22;56152;49.996;18.980;2022-12-31T15:03:42;11.20;91.90
43647;DHT22;56152;49.996;18.980;2022-12-31T15:08:55;11.10;92.00
43647;DHT22;56152;49.996;18.980;2022-12-31T15:14:27;11.00;92.10
43647;DHT22;56152;49.996;18.980;2022-12-31T15:25:27;10.90;92.30
43647;DHT22;56152;49.996;18.980;2022-12-31T15:30:35;10.90;92.20
43647;DHT22;56152;49.996;18.980;2022-12-31T15:35:48;10.90;92.30
43647;DHT22;56152;49.996;18.980;2022-12-31T15:40:52;10.90;92.30
43647;DHT22;56152;49.996;18.980;2022-12-31T15:45:54;10.80;92.30
43647;DHT22;56152;49.996;18.980;2022-12-31T15:50:58;10.80;92.40
43647;DHT22;56152;49.996;18.980;2022-12-31T15:56:04;10.70;92.40
43647;DHT22;56152;49.996;18.980;2022-12-31T16:01:12;10.60;92.50
43647;DHT22;56152;49.996;18.980;2022-12-31T16:06:15;10.60;92.60
43647;DHT22;56152;49.996;18.980;2022-12-31T16:11:19;10.40;92.70
43647;DHT22;56152;49.996;18.980;2022-12-31T16:16:24;10.40;92.90
43647;DHT22;56152;49.996;18.980;2022-12-31T16:21:31;10.30;93.00
43647;DHT22;56152;49.996;18.980;2022-12-31T16:26:41;10.30;93.00
43647;DHT22;56152;49.996;18.980;2022-12-31T16:31:45;10.20;93.10
43647;DHT22;56152;49.996;18.980;2022-12-31T16:36:55;10.10;93.10
43647;DHT22;56152;49.996;18.980;2022-12-31T16:42:17;10.10;93.30
43647;DHT22;56152;49.996;18.980;2022-12-31T16:47:21;10.10;93.30
43647;DHT22;56152;49.996;18.980;2022-12-31T16:52:27;10.10;93.30
43647;DHT22;56152;49.996;18.980;2022-12-31T16:57:35;10.00;93.30
43647;DHT22;56152;49.996;18.980;2022-12-31T17:02:38;10.10;93.30
43647;DHT22;56152;49.996;18.980;2022-12-31T17:07:41;10.10;93.20
43647;DHT22;56152;49.996;18.980;2022-12-31T17:12:47;10.20;93.20
43647;DHT22;56152;49.996;18.980;2022-12-31T17:17:54;10.20;93.20
43647;DHT22;56152;49.996;18.980;2022-12-31T17:22:59;10.30;93.10
43647;DHT22;56152;49.996;18.980;2022-12-31T17:28:06;10.40;92.90
43647;DHT22;56152;49.996;18.980;2022-12-31T17:33:29;10.30;92.80
43647;DHT22;56152;49.996;18.980;2022-12-31T17:38:32;10.30;92.90
43647;DHT22;56152;49.996;18.980;2022-12-31T17:43:38;10.30;93.00
43647;DHT22;56152;49.996;18.980;2022-12-31T17:48:59;10.20;93.00
43647;DHT22;56152;49.996;18.980;2022-12-31T17:54:05;10.30;93.10
43647;DHT22;56152;49.996;18.980;2022-12-31T17:59:15;10.30;93.00
43647;DHT22;56152;49.996;18.980;2022-12-31T18:04:19;10.20;93.00
43647;DHT22;56152;49.996;18.980;2022-12-31T18:09:21;10.20;93.00
43647;DHT22;56152;49.996;18.980;2022-12-31T18:14:29;10.10;93.00
43647;DHT22;56152;49.996;18.980;2022-12-31T18:19:31;10.10;93.10
43647;DHT22;56152;49.996;18.980;2022-12-31T18:24:33;10.10;93.00
43647;DHT22;56152;49.996;18.980;2022-12-31T18:29:37;10.10;93.00
43647;DHT22;56152;49.996;18.980;2022-12-31T18:34:39;10.10;93.00
43647;DHT22;56152;49.996;18.980;2022-12-31T18:39:41;10.20;93.10
43647;DHT22;56152;49.996;18.980;2022-12-31T18:44:44;10.10;93.00
43647;DHT22;56152;49.996;18.980;2022-12-31T18:49:47;10.10;93.10
43647;DHT22;56152;49.996;18.980;2022-12-31T18:54:49;10.00;93.20
43647;DHT22;56152;49.996;18.980;2022-12-31T18:59:53;10.00;93.20
43647;DHT22;56152;49.996;18.980;2022-12-31T19:04:59;9.90;93.20
43647;DHT22;56152;49.996;18.980;2022-12-31T19:10:01;9.90;93.20
43647;DHT22;56152;49.996;18.980;2022-12-31T19:15:21;9.90;93.20
43647;DHT22;56152;49.996;18.980;2022-12-31T19:20:24;10.00;93.20
43647;DHT22;56152;49.996;18.980;2022-12-31T19:25:32;10.10;93.20
43647;DHT22;56152;49.996;18.980;2022-12-31T19:30:37;10.20;93.10
43647;DHT22;56152;49.996;18.980;2022-12-31T19:35:41;10.30;93.00
43647;DHT22;56152;49.996;18.980;2022-12-31T19:40:43;10.30;92.80
43647;DHT22;56152;49.996;18.980;2022-12-31T19:45:50;10.40;92.70
43647;DHT22;56152;49.996;18.980;2022-12-31T19:50:55;10.40;92.80
43647;DHT22;56152;49.996;18.980;2022-12-31T19:55:57;10.50;92.70
43647;DHT22;56152;49.996;18.980;2022-12-31T20:01:02;10.50;92.50
43647;DHT22;56152;49.996;18.980;2022-12-31T20:06:07;10.40;92.60
43647;DHT22;56152;49.996;18.980;2022-12-31T20:11:11;10.40;92.50
43647;DHT22;56152;49.996;18.980;2022-12-31T20:16:20;10.50;92.30
43647;DHT22;56152;49.996;18.980;2022-12-31T20:21:27;10.50;92.10
43647;DHT22;56152;49.996;18.980;2022-12-31T20:26:29;10.50;92.10
43647;DHT22;56152;49.996;18.980;2022-12-31T20:31:35;10.50;92.10
43647;DHT22;56152;49.996;18.980;2022-12-31T20:36:37;10.50;92.10
43647;DHT22;56152;49.996;18.980;2022-12-31T20:41:43;10.50;92.10
43647;DHT22;56152;49.996;18.980;2022-12-31T20:46:47;10.50;92.00
43647;DHT22;56152;49.996;18.980;2022-12-31T20:51:49;10.50;91.90
43647;DHT22;56152;49.996;18.980;2022-12-31T20:57:00;10.40;92.00
43647;DHT22;56152;49.996;18.980;2022-12-31T21:02:11;10.40;92.00
43647;DHT22;56152;49.996;18.980;2022-12-31T21:07:13;10.30;92.00
43647;DHT22;56152;49.996;18.980;2022-12-31T21:12:18;10.30;92.10
43647;DHT22;56152;49.996;18.980;2022-12-31T21:17:46;10.30;92.10
43647;DHT22;56152;49.996;18.980;2022-12-31T21:22:49;10.20;92.00
43647;DHT22;56152;49.996;18.980;2022-12-31T21:27:54;10.10;92.10
43647;DHT22;56152;49.996;18.980;2022-12-31T21:32:57;10.00;92.20
43647;DHT22;56152;49.996;18.980;2022-12-31T21:37:59;10.00;92.30
43647;DHT22;56152;49.996;18.980;2022-12-31T21:43:03;9.80;92.30
43647;DHT22;56152;49.996;18.980;2022-12-31T21:48:13;9.80;92.40
43647;DHT22;56152;49.996;18.980;2022-12-31T21:53:26;9.80;92.40
43647;DHT22;56152;49.996;18.980;2022-12-31T21:58:29;9.80;92.40
43647;DHT22;56152;49.996;18.980;2022-12-31T22:03:36;9.90;92.30
43647;DHT22;56152;49.996;18.980;2022-12-31T22:08:46;9.90;92.30
43647;DHT22;56152;49.996;18.980;2022-12-31T22:13:49;9.90;92.30
43647;DHT22;56152;49.996;18.980;2022-12-31T22:19:00;9.90;92.30
43647;DHT22;56152;49.996;18.980;2022-12-31T22:24:05;9.80;92.30
43647;DHT22;56152;49.996;18.980;2022-12-31T22:29:10;9.80;92.30
43647;DHT22;56152;49.996;18.980;2022-12-31T22:34:15;9.70;92.30
43647;DHT22;56152;49.996;18.980;2022-12-31T22:39:18;9.60;92.40
43647;DHT22;56152;49.996;18.980;2022-12-31T22:44:20;9.50;92.40
43647;DHT22;56152;49.996;18.980;2022-12-31T22:49:25;9.50;92.40
43647;DHT22;56152;49.996;18.980;2022-12-31T22:54:28;9.50;92.40
43647;DHT22;56152;49.996;18.980;2022-12-31T22:59:30;9.50;92.40
43647;DHT22;56152;49.996;18.980;2022-12-31T23:04:34;9.60;92.40
43647;DHT22;56152;49.996;18.980;2022-12-31T23:09:36;9.60;92.20
43647;DHT22;56152;49.996;18.980;2022-12-31T23:14:56;9.70;92.10
43647;DHT22;56152;49.996;18.980;2022-12-31T23:20:19;9.80;92.10
43647;DHT22;56152;49.996;18.980;2022-12-31T23:25:47;9.90;92.00
43647;DHT22;56152;49.996;18.980;2022-12-31T23:30:50;9.90;91.90
43647;DHT22;56152;49.996;18.980;2022-12-31T23:36:06;10.00;91.80
43647;DHT22;56152;49.996;18.980;2022-12-31T23:41:13;10.10;91.80
43647;DHT22;56152;49.996;18.980;2022-12-31T23:46:17;10.10;91.70
43647;DHT22;56152;49.996;18.980;2022-12-31T23:51:22;10.10;91.60
43647;DHT22;56152;49.996;18.980;2022-12-31T23:56:26;10.00;91.50
